Time,TemperatureF,DewpointF,PressureIn,WindDirection,WindDirectionDegrees,WindSpeedMPH,WindSpeedGustMPH,Humidity,HourlyPrecipIn,Conditions,Clouds,dailyrainin,SolarRadiationWatts/m^2,SoftwareType,DateUTC
2013-03-13 10:02:00,7.0,3.0,-100.00,SE,124,1.0,2.0,82,-99.99,,,-99.99,97.400002,,2013-03-13 18:02:00,
2013-03-13 10:12:00,7.0,3.0,-100.00,SE,124,1.0,2.0,82,-99.99,,,-99.99,97.400002,,2013-03-13 18:12:00,
2013-03-13 10:22:00,7.0,3.0,-100.00,SE,124,1.0,2.0,82,-99.99,,,-99.99,97.400002,,2013-03-13 18:22:00,
2013-03-13 10:32:00,7.0,3.0,-100.00,SE,124,1.0,2.0,82,-99.99,,,-99.99,97.400002,,2013-03-13 18:32:00,
2013-03-13 10:42:00,7.0,3.0,-100.00,SE,124,1.0,2.0,82,-99.99,,,-99.99,97.400002,,2013-03-13 18:42:00,
2013-03-13 11:02:00,6.0,2.0,-100.00,ESE,118,1.0,2.0,81,0.00,,,0.00,227.100006,,2013-03-13 19:02:00,
2013-03-13 11:12:00,6.0,2.0,-100.00,ESE,118,1.0,2.0,81,0.00,,,0.00,227.100006,,2013-03-13 19:12:00,
2013-03-13 11:22:00,6.0,2.0,-100.00,ESE,118,1.0,2.0,81,0.00,,,0.00,227.100006,,2013-03-13 19:22:00,
2013-03-13 11:32:00,6.0,2.0,-100.00,ESE,118,1.0,2.0,81,0.00,,,0.00,227.100006,,2013-03-13 19:32:00,
2013-03-13 11:42:00,6.0,2.0,-100.00,ESE,118,1.0,2.0,81,0.00,,,0.00,227.100006,,2013-03-13 19:42:00,
2013-03-13 12:02:00,7.0,2.0,-100.00,ESE,117,1.0,2.0,81,0.00,,,0.00,340.200012,,2013-03-13 20:02:00,
2013-03-13 12:12:00,7.0,2.0,-100.00,ESE,117,1.0,2.0,81,0.00,,,0.00,340.200012,,2013-03-13 20:12:00,
2013-03-13 12:22:00,7.0,2.0,-100.00,ESE,117,1.0,2.0,81,0.00,,,0.00,340.200012,,2013-03-13 20:22:00,
2013-03-13 12:32:00,7.0,2.0,-100.00,ESE,117,1.0,2.0,81,0.00,,,0.00,340.200012,,2013-03-13 20:32:00,
2013-03-13 12:41:00,7.0,2.0,-100.00,ESE,117,1.0,2.0,81,0.00,,,0.00,340.200012,,2013-03-13 20:41:00,
2013-03-13 13:02:00,10.0,6.0,-100.00,ESE,112,1.0,2.0,82,0.00,,,0.00,427.700012,,2013-03-13 21:02:00,
2013-03-13 13:12:00,10.0,6.0,-100.00,ESE,112,1.0,2.0,82,0.00,,,0.00,427.700012,,2013-03-13 21:12:00,
2013-03-13 13:22:00,10.0,6.0,-100.00,ESE,112,1.0,2.0,82,0.00,,,0.00,427.700012,,2013-03-13 21:22:00,
2013-03-13 13:32:00,10.0,6.0,-100.00,ESE,112,1.0,2.0,82,0.00,,,0.00,427.700012,,2013-03-13 21:32:00,
2013-03-13 13:41:00,10.0,6.0,-100.00,ESE,112,1.0,2.0,82,0.00,,,0.00,427.700012,,2013-03-13 21:41:00,
2013-03-13 14:02:00,9.0,5.0,-100.00,SE,128,1.0,2.0,81,0.00,,,0.00,481.899994,,2013-03-13 22:02:00,
2013-03-13 14:12:00,9.0,5.0,-100.00,SE,128,1.0,2.0,81,0.00,,,0.00,481.899994,,2013-03-13 22:12:00,
2013-03-13 14:22:00,9.0,5.0,-100.00,SE,128,1.0,2.0,81,0.00,,,0.00,481.899994,,2013-03-13 22:22:00,
2013-03-13 14:31:00,9.0,5.0,-100.00,SE,128,1.0,2.0,81,0.00,,,0.00,481.899994,,2013-03-13 22:31:00,
2013-03-13 14:42:00,9.0,5.0,-100.00,SE,128,1.0,2.0,81,0.00,,,0.00,481.899994,,2013-03-13 22:42:00,
2013-03-13 15:02:00,11.0,6.0,-100.00,East,96,4.0,8.0,81,0.00,,,0.00,496.799988,,2013-03-13 23:02:00,
2013-03-13 15:12:00,11.0,6.0,-100.00,East,96,4.0,8.0,81,0.00,,,0.00,496.799988,,2013-03-13 23:12:00,
2013-03-13 15:22:00,11.0,6.0,-100.00,East,96,4.0,8.0,81,0.00,,,0.00,496.799988,,2013-03-13 23:22:00,
2013-03-13 15:32:00,11.0,6.0,-100.00,East,96,4.0,8.0,81,0.00,,,0.00,496.799988,,2013-03-13 23:32:00,
2013-03-13 15:41:00,11.0,6.0,-100.00,East,96,4.0,8.0,81,0.00,,,0.00,496.799988,,2013-03-13 23:41:00,
2013-03-13 16:02:00,9.0,4.0,-100.00,ESE,113,5.0,7.0,80,0.00,,,0.00,470.100006,,2013-03-14 00:02:00,
2013-03-13 16:12:00,9.0,4.0,-100.00,ESE,113,5.0,7.0,80,0.00,,,0.00,470.100006,,2013-03-14 00:12:00,
2013-03-13 16:22:00,9.0,4.0,-100.00,ESE,113,5.0,7.0,80,0.00,,,0.00,470.100006,,2013-03-14 00:22:00,
2013-03-13 16:32:00,9.0,4.0,-100.00,ESE,113,5.0,7.0,80,0.00,,,0.00,470.100006,,2013-03-14 00:32:00,
2013-03-13 16:42:00,9.0,4.0,-100.00,ESE,113,5.0,7.0,80,0.00,,,0.00,470.100006,,2013-03-14 00:42:00,
2013-03-13 17:02:00,8.0,3.0,-100.00,ESE,113,7.0,7.0,80,0.00,,,0.00,406.000000,,2013-03-14 01:02:00,
2013-03-13 17:12:00,8.0,3.0,-100.00,ESE,113,7.0,7.0,80,0.00,,,0.00,406.000000,,2013-03-14 01:12:00,
2013-03-13 17:22:00,8.0,3.0,-100.00,ESE,113,7.0,7.0,80,0.00,,,0.00,406.000000,,2013-03-14 01:22:00,
2013-03-13 17:32:00,8.0,3.0,-100.00,ESE,113,7.0,7.0,80,0.00,,,0.00,406.000000,,2013-03-14 01:32:00,
2013-03-13 17:42:00,8.0,3.0,-100.00,ESE,113,7.0,7.0,80,0.00,,,0.00,406.000000,,2013-03-14 01:42:00,
2013-03-13 18:02:00,6.0,1.0,-100.00,East,98,9.0,10.0,81,0.00,,,0.00,264.200012,,2013-03-14 02:02:00,
2013-03-13 18:12:00,6.0,1.0,-100.00,East,98,9.0,10.0,81,0.00,,,0.00,264.200012,,2013-03-14 02:12:00,
2013-03-13 18:22:00,6.0,1.0,-100.00,East,98,9.0,10.0,81,0.00,,,0.00,264.200012,,2013-03-14 02:22:00,
2013-03-13 18:32:00,6.0,1.0,-100.00,East,98,9.0,10.0,81,0.00,,,0.00,264.200012,,2013-03-14 02:32:00,
2013-03-13 18:42:00,6.0,1.0,-100.00,East,98,9.0,10.0,81,0.00,,,0.00,264.200012,,2013-03-14 02:42:00,
2013-03-13 19:01:00,6.0,2.0,-100.00,East,97,9.0,10.0,82,0.00,,,0.00,120.300003,,2013-03-14 03:01:00,
2013-03-13 19:12:00,6.0,2.0,-100.00,East,97,9.0,10.0,82,0.00,,,0.00,120.300003,,2013-03-14 03:12:00,
2013-03-13 19:22:00,6.0,2.0,-100.00,East,97,9.0,10.0,82,0.00,,,0.00,120.300003,,2013-03-14 03:22:00,
2013-03-13 19:32:00,6.0,2.0,-100.00,East,97,9.0,10.0,82,0.00,,,0.00,120.300003,,2013-03-14 03:32:00,
2013-03-13 19:42:00,6.0,2.0,-100.00,East,97,9.0,10.0,82,0.00,,,0.00,120.300003,,2013-03-14 03:42:00,
2013-03-13 20:12:00,5.0,1.0,-100.00,East,99,8.0,11.0,82,0.00,,,0.00,44.200001,,2013-03-14 04:12:00,
2013-03-13 20:22:00,5.0,1.0,-100.00,East,99,8.0,11.0,82,0.00,,,0.00,44.200001,,2013-03-14 04:22:00,
2013-03-13 20:32:00,5.0,1.0,-100.00,East,99,8.0,11.0,82,0.00,,,0.00,44.200001,,2013-03-14 04:32:00,
2013-03-13 20:41:00,5.0,1.0,-100.00,East,99,8.0,11.0,82,0.00,,,0.00,44.200001,,2013-03-14 04:41:00,
2013-03-13 21:02:00,5.0,1.0,-100.00,East,98,9.0,11.0,82,0.00,,,0.00,3.200000,,2013-03-14 05:02:00,
2013-03-13 21:12:00,5.0,1.0,-100.00,East,98,9.0,11.0,82,0.00,,,0.00,3.200000,,2013-03-14 05:12:00,
2013-03-13 21:22:00,5.0,1.0,-100.00,East,98,9.0,11.0,82,0.00,,,0.00,3.200000,,2013-03-14 05:22:00,
2013-03-13 21:32:00,5.0,1.0,-100.00,East,98,9.0,11.0,82,0.00,,,0.00,3.200000,,2013-03-14 05:32:00,
2013-03-13 21:42:00,5.0,1.0,-100.00,East,98,9.0,11.0,82,0.00,,,0.00,3.200000,,2013-03-14 05:42:00,
2013-03-13 22:02:00,5.0,1.0,-100.00,East,86,11.0,11.0,82,0.00,,,-99.99,0.700000,,2013-03-14 06:02:00,
2013-03-13 22:12:00,5.0,1.0,-100.00,East,86,11.0,11.0,82,0.00,,,-99.99,0.700000,,2013-03-14 06:12:00,
2013-03-13 22:22:00,5.0,1.0,-100.00,East,86,11.0,11.0,82,0.00,,,-99.99,0.700000,,2013-03-14 06:22:00,
2013-03-13 22:32:00,5.0,1.0,-100.00,East,86,11.0,11.0,82,0.00,,,-99.99,0.700000,,2013-03-14 06:32:00,
2013-03-13 22:42:00,5.0,1.0,-100.00,East,86,11.0,11.0,82,0.00,,,-99.99,0.700000,,2013-03-14 06:42:00,
2013-03-13 23:02:00,5.0,1.0,-100.00,East,86,8.0,13.0,82,0.00,,,0.00,0.700000,,2013-03-14 07:02:00,
2013-03-13 23:12:00,5.0,1.0,-100.00,East,86,8.0,13.0,82,0.00,,,0.00,0.700000,,2013-03-14 07:12:00,
2013-03-13 23:22:00,5.0,1.0,-100.00,East,86,8.0,13.0,82,0.00,,,0.00,0.700000,,2013-03-14 07:22:00,
2013-03-13 23:32:00,5.0,1.0,-100.00,East,86,8.0,13.0,82,0.00,,,0.00,0.700000,,2013-03-14 07:32:00,
2013-03-13 23:41:00,5.0,1.0,-100.00,East,86,8.0,13.0,82,0.00,,,0.00,0.700000,,2013-03-14 07:41:00,